createdAt,value
2022-11-28T00:00:15.077Z,6.78
2022-11-28T00:01:15.051Z,6.76
2022-11-28T00:02:15.149Z,6.75
2022-11-28T00:03:15.199Z,6.75
2022-11-28T00:04:15.012Z,6.75
2022-11-28T00:05:15.059Z,6.76
2022-11-28T00:06:14.998Z,6.75
2022-11-28T00:07:15.031Z,6.75
2022-11-28T00:08:14.988Z,6.75
2022-11-28T00:09:14.946Z,6.73
2022-11-28T00:10:14.947Z,6.73
2022-11-28T00:11:14.912Z,6.75
2022-11-28T00:12:14.920Z,6.73
2022-11-28T00:13:14.892Z,6.75
2022-11-28T00:14:14.877Z,6.76
2022-11-28T00:15:14.898Z,6.75
2022-11-28T00:16:14.955Z,6.72
2022-11-28T00:17:14.849Z,6.73
2022-11-28T00:18:14.920Z,6.73
2022-11-28T00:19:14.786Z,6.72
2022-11-28T00:20:14.808Z,6.72
2022-11-28T00:21:14.787Z,6.72
2022-11-28T00:22:14.762Z,6.76
2022-11-28T00:23:15.793Z,6.73
2022-11-28T00:24:14.816Z,6.73
2022-11-28T00:25:14.718Z,6.75
2022-11-28T00:26:14.737Z,6.75
2022-11-28T00:27:14.698Z,6.75
2022-11-28T00:28:14.723Z,6.73
2022-11-28T00:29:14.775Z,6.75
2022-11-28T00:30:14.711Z,6.73
2022-11-28T00:31:14.722Z,6.76
2022-11-28T00:32:14.772Z,6.76
2022-11-28T00:33:14.686Z,6.76
2022-11-28T00:34:14.626Z,6.76
2022-11-28T00:35:14.591Z,6.75
2022-11-28T00:36:14.653Z,6.76
2022-11-28T00:37:14.586Z,6.78
2022-11-28T00:38:14.583Z,6.76
2022-11-28T00:39:14.572Z,6.78
2022-11-28T00:40:14.560Z,6.78
2022-11-28T00:41:14.561Z,6.78
2022-11-28T00:42:14.546Z,6.78
2022-11-28T00:43:14.519Z,6.78
2022-11-28T00:44:14.570Z,6.76
2022-11-28T00:45:14.464Z,6.76
2022-11-28T00:46:14.528Z,6.75
2022-11-28T00:47:14.466Z,6.78
2022-11-28T00:48:14.430Z,6.78
2022-11-28T00:49:14.414Z,6.78
2022-11-28T00:50:14.430Z,6.81
2022-11-28T00:51:14.374Z,6.81
2022-11-28T00:52:14.407Z,6.78
2022-11-28T00:53:14.347Z,6.78
2022-11-28T00:54:14.396Z,6.76
2022-11-28T00:55:14.350Z,6.78
2022-11-28T00:56:14.399Z,6.76
2022-11-28T00:57:14.319Z,6.76
2022-11-28T00:58:14.332Z,6.78
2022-11-28T00:59:14.610Z,6.78
2022-11-28T01:00:14.299Z,6.76
2022-11-28T01:01:14.341Z,6.76
2022-11-28T01:02:14.304Z,6.76
2022-11-28T01:03:14.358Z,6.76
2022-11-28T01:04:14.245Z,6.75
2022-11-28T01:05:14.211Z,6.75
2022-11-28T01:06:14.200Z,6.76
2022-11-28T01:07:14.243Z,6.75
2022-11-28T01:08:14.197Z,6.75
2022-11-28T01:09:14.198Z,6.75
2022-11-28T01:10:14.194Z,6.78
2022-11-28T01:11:14.121Z,6.76
2022-11-28T01:12:14.117Z,6.75
2022-11-28T01:13:14.154Z,6.76
2022-11-28T01:14:14.091Z,6.76
2022-11-28T01:15:14.060Z,6.73
2022-11-28T01:16:14.326Z,6.73
2022-11-28T01:17:14.049Z,6.75
2022-11-28T01:18:14.065Z,6.75
2022-11-28T01:19:14.012Z,6.75
2022-11-28T01:20:14.009Z,6.76
2022-11-28T01:21:14.092Z,6.76
2022-11-28T01:22:13.991Z,6.76
2022-11-28T01:23:13.967Z,6.76
2022-11-28T01:24:13.996Z,6.75
2022-11-28T01:25:14.657Z,6.75
2022-11-28T01:26:13.946Z,6.75
2022-11-28T01:27:13.936Z,6.75
2022-11-28T01:28:13.919Z,6.76
2022-11-28T01:29:13.916Z,6.75
2022-11-28T01:30:13.908Z,6.73
2022-11-28T01:31:13.961Z,6.75
2022-11-28T01:32:13.900Z,6.75
2022-11-28T01:33:13.873Z,6.75
2022-11-28T01:34:13.869Z,6.76
2022-11-28T01:35:13.949Z,6.76
2022-11-28T01:36:13.945Z,6.73
2022-11-28T01:37:13.804Z,6.73
2022-11-28T01:38:14.544Z,6.75
2022-11-28T01:39:13.829Z,6.73
2022-11-28T01:40:13.755Z,6.73
2022-11-28T01:41:13.753Z,6.75
2022-11-28T01:42:13.761Z,6.72
2022-11-28T01:43:13.721Z,6.72
2022-11-28T01:44:13.726Z,6.73
2022-11-28T01:45:13.696Z,6.72
2022-11-28T01:46:13.903Z,6.72
2022-11-28T01:47:13.703Z,6.73
2022-11-28T01:48:13.683Z,6.72
2022-11-28T01:49:13.633Z,6.75
2022-11-28T01:50:13.652Z,6.73
2022-11-28T01:51:13.768Z,6.75
2022-11-28T01:52:13.641Z,6.73
2022-11-28T01:53:13.605Z,6.76
2022-11-28T01:54:13.595Z,6.76
2022-11-28T01:55:13.577Z,6.76
2022-11-28T01:56:13.571Z,6.75
2022-11-28T01:57:13.518Z,6.73
2022-11-28T01:58:13.546Z,6.78
2022-11-28T01:59:13.496Z,6.75
2022-11-28T02:00:13.490Z,6.76
2022-11-28T02:01:13.576Z,6.76
2022-11-28T02:02:13.585Z,6.75
2022-11-28T02:03:13.495Z,6.73
2022-11-28T02:04:13.494Z,6.76
2022-11-28T02:05:13.417Z,6.76
2022-11-28T02:06:13.456Z,6.78
2022-11-28T02:07:13.454Z,6.76
2022-11-28T02:08:13.390Z,6.76
2022-11-28T02:09:13.611Z,6.78
2022-11-28T02:10:13.415Z,6.78
2022-11-28T02:11:13.384Z,6.78
2022-11-28T02:12:13.348Z,6.76
2022-11-28T02:13:13.358Z,6.75
2022-11-28T02:14:13.348Z,6.75
2022-11-28T02:15:13.328Z,6.76
2022-11-28T02:16:13.542Z,6.78
2022-11-28T02:17:13.266Z,6.79
2022-11-28T02:18:13.274Z,6.78
2022-11-28T02:19:13.251Z,6.78
2022-11-28T02:20:13.268Z,6.78
2022-11-28T02:21:13.244Z,6.78
2022-11-28T02:22:13.207Z,6.78
2022-11-28T02:23:13.220Z,6.76
2022-11-28T02:24:13.222Z,6.76
2022-11-28T02:25:13.182Z,6.78
2022-11-28T02:26:13.176Z,6.79
2022-11-28T02:27:13.137Z,6.81
2022-11-28T02:28:13.174Z,6.79
2022-11-28T02:29:13.152Z,6.79
2022-11-28T02:30:13.121Z,6.79
2022-11-28T02:31:13.156Z,6.79
2022-11-28T02:32:13.106Z,6.82
2022-11-28T02:33:13.051Z,6.79
2022-11-28T02:34:13.124Z,6.81
2022-11-28T02:35:13.194Z,6.79
2022-11-28T02:37:10.101Z,6.79
2022-11-28T02:38:10.192Z,6.76
2022-11-28T02:39:10.934Z,6.76
2022-11-28T02:40:10.022Z,6.76
2022-11-28T02:41:10.058Z,6.76
2022-11-28T02:42:10.005Z,6.75
2022-11-28T02:43:09.995Z,6.75
2022-11-28T02:44:09.963Z,6.76
2022-11-28T02:45:09.967Z,6.78
2022-11-28T02:46:09.958Z,6.78
2022-11-28T02:47:10.027Z,6.79
2022-11-28T02:48:09.911Z,6.76
2022-11-28T02:49:09.935Z,6.73
2022-11-28T02:50:09.926Z,6.73
2022-11-28T02:51:09.925Z,6.73
2022-11-28T02:52:09.880Z,6.73
2022-11-28T02:53:09.860Z,6.75
2022-11-28T02:54:09.856Z,6.75
2022-11-28T02:55:09.865Z,6.75
2022-11-28T02:56:09.829Z,6.75
2022-11-28T02:57:09.864Z,6.75
2022-11-28T02:58:09.815Z,6.75
2022-11-28T02:59:09.816Z,6.73
2022-11-28T03:00:12.726Z,6.75
2022-11-28T03:01:10.841Z,6.75
2022-11-28T03:02:09.810Z,6.75
2022-11-28T03:03:09.764Z,6.75
2022-11-28T03:04:09.742Z,6.76
2022-11-28T03:05:09.743Z,6.75
2022-11-28T03:06:09.697Z,6.73
2022-11-28T03:07:09.712Z,6.73
2022-11-28T03:08:09.691Z,6.73
2022-11-28T03:09:09.703Z,6.75
2022-11-28T03:10:09.662Z,6.73
2022-11-28T03:11:09.673Z,6.72
2022-11-28T03:12:09.641Z,6.72
2022-11-28T03:13:09.607Z,6.73
2022-11-28T03:14:09.611Z,6.72
2022-11-28T03:15:09.594Z,6.71
2022-11-28T03:16:09.664Z,6.71
2022-11-28T03:17:09.582Z,6.72
2022-11-28T03:18:09.533Z,6.73
2022-11-28T03:19:09.530Z,6.72
2022-11-28T03:20:09.552Z,6.72
2022-11-28T03:21:09.540Z,6.72
2022-11-28T03:22:09.496Z,6.72
2022-11-28T03:23:09.510Z,6.75
2022-11-28T03:24:09.454Z,6.73
2022-11-28T03:25:09.461Z,6.73
2022-11-28T03:26:09.486Z,6.72
2022-11-28T03:27:09.421Z,6.72
2022-11-28T03:28:09.438Z,6.72
2022-11-28T03:29:09.413Z,6.72
2022-11-28T03:30:09.385Z,6.72
2022-11-28T03:31:09.428Z,6.72
2022-11-28T03:32:09.389Z,6.71
2022-11-28T03:33:09.342Z,6.71
2022-11-28T03:34:09.343Z,6.71
2022-11-28T03:35:09.341Z,6.73
2022-11-28T03:36:09.320Z,6.72
2022-11-28T03:37:09.318Z,6.72
2022-11-28T03:38:09.281Z,6.72
2022-11-28T03:39:09.270Z,6.72
2022-11-28T03:40:09.297Z,6.71
2022-11-28T03:41:09.267Z,6.71
2022-11-28T03:42:09.240Z,6.71
2022-11-28T03:43:09.220Z,6.71
2022-11-28T03:44:09.239Z,6.68
2022-11-28T03:45:09.179Z,6.68
2022-11-28T03:46:09.199Z,6.68
2022-11-28T03:47:09.251Z,6.65
2022-11-28T03:48:09.179Z,6.65
2022-11-28T03:49:09.130Z,6.64
2022-11-28T03:50:09.167Z,6.64
2022-11-28T03:51:09.129Z,6.61
2022-11-28T03:52:09.132Z,6.61
2022-11-28T03:53:09.079Z,6.63
2022-11-28T03:54:09.095Z,6.63
2022-11-28T03:55:09.076Z,6.61
2022-11-28T03:56:09.212Z,6.60
2022-11-28T03:57:09.054Z,6.61
2022-11-28T03:58:09.058Z,6.63
2022-11-28T03:59:09.025Z,6.58
2022-11-28T04:00:09.027Z,6.60
2022-11-28T04:01:09.088Z,6.63
2022-11-28T04:02:09.004Z,6.60
2022-11-28T04:03:09.023Z,6.61
2022-11-28T04:04:08.949Z,6.58
2022-11-28T04:05:08.944Z,6.60
2022-11-28T04:06:08.938Z,6.60
2022-11-28T04:07:08.896Z,6.60
2022-11-28T04:08:08.895Z,6.60
2022-11-28T04:09:13.008Z,6.60
2022-11-28T04:10:09.902Z,6.61
2022-11-28T04:11:08.882Z,6.63
2022-11-28T04:12:08.845Z,6.61
2022-11-28T04:13:08.815Z,6.61
2022-11-28T04:14:08.825Z,6.61
2022-11-28T04:15:08.820Z,6.60
2022-11-28T04:16:09.151Z,6.61
2022-11-28T04:17:08.791Z,6.63
2022-11-28T04:18:08.790Z,6.61
2022-11-28T04:19:08.771Z,6.61
2022-11-28T04:20:08.743Z,6.60
2022-11-28T04:21:08.753Z,6.58
2022-11-28T04:22:08.740Z,6.58
2022-11-28T04:23:08.710Z,6.58
2022-11-28T04:24:08.706Z,6.58
2022-11-28T04:25:08.665Z,6.57
2022-11-28T04:26:08.661Z,6.57
2022-11-28T04:27:08.632Z,6.55
2022-11-28T04:28:08.632Z,6.54
2022-11-28T04:29:08.649Z,6.53
2022-11-28T04:30:08.641Z,6.51
2022-11-28T04:31:08.658Z,6.54
2022-11-28T04:32:08.588Z,6.55
2022-11-28T04:33:08.559Z,6.54
2022-11-28T04:34:08.584Z,6.54
2022-11-28T04:35:08.566Z,6.54
2022-11-28T04:36:08.581Z,6.53
2022-11-28T04:37:10.045Z,6.53
2022-11-28T04:38:08.510Z,6.54
2022-11-28T04:39:08.526Z,6.53
2022-11-28T04:40:08.506Z,6.53
2022-11-28T04:41:08.454Z,6.54
2022-11-28T04:42:08.449Z,6.54
2022-11-28T04:43:08.466Z,6.53
2022-11-28T04:44:08.431Z,6.53
2022-11-28T04:45:08.450Z,6.54
2022-11-28T04:46:08.475Z,6.53
2022-11-28T04:47:08.406Z,6.53
2022-11-28T04:48:08.413Z,6.53
2022-11-28T04:49:08.394Z,6.54
2022-11-28T04:50:08.402Z,6.55
2022-11-28T04:51:08.326Z,6.53
2022-11-28T04:52:08.353Z,6.53
2022-11-28T04:53:08.306Z,6.54
2022-11-28T04:54:08.328Z,6.54
2022-11-28T04:55:08.297Z,6.53
2022-11-28T04:56:08.306Z,6.54
2022-11-28T04:57:08.257Z,6.54
2022-11-28T04:58:09.043Z,6.54
2022-11-28T04:59:08.253Z,6.51
2022-11-28T05:00:08.236Z,6.53
2022-11-28T05:01:08.285Z,6.51
2022-11-28T05:02:08.298Z,6.53
2022-11-28T05:03:08.202Z,6.53
2022-11-28T05:04:08.169Z,6.54
2022-11-28T05:05:08.144Z,6.53
2022-11-28T05:06:08.927Z,6.53
2022-11-28T05:07:08.162Z,6.53
2022-11-28T05:08:08.175Z,6.53
2022-11-28T05:09:08.113Z,6.51
2022-11-28T05:10:08.117Z,6.51
2022-11-28T05:11:08.101Z,6.51
2022-11-28T05:12:08.115Z,6.53
2022-11-28T05:13:08.072Z,6.51
2022-11-28T05:14:08.036Z,6.50
2022-11-28T05:15:08.032Z,6.48
2022-11-28T05:16:08.071Z,6.48
2022-11-28T05:17:08.023Z,6.48
2022-11-28T05:18:08.022Z,6.46
2022-11-28T05:19:07.961Z,6.46
2022-11-28T05:20:07.999Z,6.45
2022-11-28T05:21:07.954Z,6.48
2022-11-28T05:22:07.958Z,6.46
2022-11-28T05:23:07.977Z,6.48
2022-11-28T05:24:07.938Z,6.46
2022-11-28T05:25:07.915Z,6.46
2022-11-28T05:26:07.891Z,6.45
2022-11-28T05:27:07.868Z,6.45
2022-11-28T05:28:07.938Z,6.45
2022-11-28T05:29:07.867Z,6.43
2022-11-28T05:30:07.832Z,6.43
2022-11-28T05:31:07.963Z,6.45
2022-11-28T05:32:07.858Z,6.46
2022-11-28T05:33:07.800Z,6.46
2022-11-28T05:34:07.800Z,6.46
2022-11-28T05:35:07.796Z,6.48
2022-11-28T05:36:12.607Z,6.50
2022-11-28T05:37:08.763Z,6.50
2022-11-28T05:38:13.300Z,6.50
2022-11-28T05:39:08.720Z,6.50
2022-11-28T05:40:07.720Z,6.48
2022-11-28T05:41:07.707Z,6.48
2022-11-28T05:42:07.708Z,6.46
2022-11-28T05:43:07.658Z,6.46
2022-11-28T05:44:07.734Z,6.50
2022-11-28T05:45:07.655Z,6.46
2022-11-28T05:46:07.700Z,6.46
2022-11-28T05:47:07.627Z,6.46
2022-11-28T05:48:07.636Z,6.45
2022-11-28T05:49:07.598Z,6.45
2022-11-28T05:50:07.622Z,6.45
2022-11-28T05:51:07.592Z,6.45
2022-11-28T05:52:07.582Z,6.43
2022-11-28T05:53:07.526Z,6.45
2022-11-28T05:54:07.527Z,6.45
2022-11-28T05:55:07.556Z,6.46
2022-11-28T05:56:07.554Z,6.45
2022-11-28T05:57:07.613Z,6.45
2022-11-28T05:58:07.928Z,6.43
2022-11-28T05:59:07.536Z,6.43
2022-11-28T06:00:07.561Z,6.42
2022-11-28T06:01:07.624Z,6.45
2022-11-28T06:02:07.712Z,6.43
2022-11-28T06:03:07.644Z,6.43
2022-11-28T06:04:07.767Z,6.46
2022-11-28T06:05:27.726Z,6.43
2022-11-28T06:06:08.433Z,6.45
2022-11-28T06:07:07.357Z,6.43
2022-11-28T06:08:07.397Z,6.45
2022-11-28T06:09:07.322Z,6.48
2022-11-28T06:10:07.322Z,6.45
2022-11-28T06:11:07.292Z,6.45
2022-11-28T06:12:07.336Z,6.43
2022-11-28T06:13:07.311Z,6.42
2022-11-28T06:14:07.270Z,6.43
2022-11-28T06:15:07.260Z,6.40
2022-11-28T06:16:07.282Z,6.39
2022-11-28T06:17:07.264Z,6.39
2022-11-28T06:18:07.224Z,6.40
2022-11-28T06:19:07.226Z,6.39
2022-11-28T06:20:07.191Z,6.36
2022-11-28T06:21:07.221Z,6.38
2022-11-28T06:22:07.197Z,6.38
2022-11-28T06:23:07.166Z,6.39
2022-11-28T06:24:07.140Z,6.40
2022-11-28T06:25:07.172Z,6.38
2022-11-28T06:26:07.109Z,6.38
2022-11-28T06:27:07.147Z,6.38
2022-11-28T06:28:07.098Z,6.39
2022-11-28T06:29:07.059Z,6.40
2022-11-28T06:30:07.069Z,6.39
2022-11-28T06:31:07.057Z,6.42
2022-11-28T06:32:07.079Z,6.42
2022-11-28T06:33:07.064Z,6.43
2022-11-28T06:34:07.044Z,6.42
2022-11-28T06:35:07.000Z,6.45
2022-11-28T06:36:07.005Z,6.45
2022-11-28T06:37:06.983Z,6.45
2022-11-28T06:38:10.229Z,6.43
2022-11-28T06:39:07.972Z,6.43
2022-11-28T06:40:06.952Z,6.43
2022-11-28T06:41:06.933Z,6.43
2022-11-28T06:42:06.916Z,6.43
2022-11-28T06:43:06.923Z,6.43
2022-11-28T06:46:34.064Z,6.43
2022-11-28T06:47:34.035Z,6.43
2022-11-28T06:48:34.054Z,6.43
2022-11-28T06:49:34.035Z,6.42
2022-11-28T06:50:34.042Z,6.43
2022-11-28T06:51:33.991Z,6.43
2022-11-28T06:52:34.049Z,6.42
2022-11-28T06:53:33.991Z,6.42
2022-11-28T06:54:34.029Z,6.40
2022-11-28T06:55:33.951Z,6.42
2022-11-28T06:56:33.960Z,6.43
2022-11-28T06:57:33.938Z,6.42
2022-11-28T06:58:33.968Z,6.43
2022-11-28T06:59:33.903Z,6.42
2022-11-28T07:00:33.902Z,6.42
2022-11-28T07:01:33.908Z,6.40
2022-11-28T07:02:33.946Z,6.42
2022-11-28T07:03:33.873Z,6.42
2022-11-28T07:04:33.853Z,6.42
2022-11-28T07:05:33.945Z,6.42
2022-11-28T07:06:33.809Z,6.42
2022-11-28T07:07:41.798Z,6.42
2022-11-28T07:08:35.416Z,6.42
2022-11-28T07:09:34.052Z,6.42
2022-11-28T07:10:34.187Z,6.42
2022-11-28T07:11:34.059Z,6.42
2022-11-28T07:12:33.854Z,6.43
2022-11-28T07:13:33.706Z,6.42
2022-11-28T07:14:33.713Z,6.43
2022-11-28T07:15:33.708Z,6.45
2022-11-28T07:16:33.825Z,6.46
2022-11-28T07:17:33.687Z,6.45
2022-11-28T07:18:33.692Z,6.50
2022-11-28T07:19:33.628Z,6.48
2022-11-28T07:20:33.645Z,6.48
2022-11-28T07:21:33.644Z,6.45
2022-11-28T07:22:33.618Z,6.45
2022-11-28T07:23:33.662Z,6.46
2022-11-28T07:24:33.715Z,6.46
2022-11-28T07:25:33.736Z,6.46
2022-11-28T07:26:33.661Z,6.48
2022-11-28T07:27:33.693Z,6.48
2022-11-28T07:28:33.645Z,6.51
2022-11-28T07:29:34.003Z,6.50
2022-11-28T07:30:33.634Z,6.50
2022-11-28T07:31:33.938Z,6.50
2022-11-28T07:32:33.672Z,6.51
2022-11-28T07:33:33.577Z,6.50
2022-11-28T07:34:33.522Z,6.50
2022-11-28T07:35:33.417Z,6.51
2022-11-28T07:36:33.448Z,6.51
2022-11-28T07:37:33.425Z,6.54
2022-11-28T07:38:33.426Z,6.51
2022-11-28T07:39:33.421Z,6.54
2022-11-28T07:40:33.391Z,6.53
2022-11-28T07:41:33.351Z,6.53
2022-11-28T07:42:33.370Z,6.54
2022-11-28T07:43:33.360Z,6.54
2022-11-28T07:44:33.330Z,6.54
2022-11-28T07:45:53.810Z,6.53
2022-11-28T07:46:34.414Z,6.54
2022-11-28T07:47:33.293Z,6.51
2022-11-28T07:48:33.264Z,6.53
2022-11-28T07:49:33.298Z,6.51
2022-11-28T07:50:33.281Z,6.51
2022-11-28T07:51:33.214Z,6.53
2022-11-28T07:52:33.236Z,6.54
2022-11-28T07:53:33.191Z,6.53
2022-11-28T07:54:33.192Z,6.55
2022-11-28T07:55:33.208Z,6.57
2022-11-28T07:56:57.254Z,6.55
2022-11-28T07:57:34.176Z,6.54
2022-11-28T07:58:33.131Z,6.57
2022-11-28T07:59:33.126Z,6.57
2022-11-28T08:00:33.095Z,6.55
2022-11-28T08:01:33.170Z,6.55
2022-11-28T08:02:33.203Z,6.55
2022-11-28T08:03:33.097Z,6.55
2022-11-28T08:04:33.098Z,6.57
2022-11-28T08:05:33.206Z,6.58
2022-11-28T08:06:34.260Z,6.60
2022-11-28T08:07:33.154Z,6.58
2022-11-28T08:08:33.160Z,6.60
2022-11-28T08:09:33.049Z,6.60
2022-11-28T08:10:33.202Z,6.61
2022-11-28T08:11:33.083Z,6.61
2022-11-28T08:12:33.033Z,6.58
2022-11-28T08:13:32.931Z,6.60
2022-11-28T08:14:32.933Z,6.61
2022-11-28T08:15:32.907Z,6.60
2022-11-28T08:16:33.001Z,6.60
2022-11-28T08:17:32.942Z,6.63
2022-11-28T08:18:33.143Z,6.63
2022-11-28T08:19:35.529Z,6.63
2022-11-28T08:20:33.686Z,6.63
2022-11-28T08:21:42.577Z,6.63
2022-11-28T08:22:34.116Z,6.64
2022-11-28T08:23:32.973Z,6.65
2022-11-28T08:24:33.026Z,6.64
2022-11-28T08:25:33.087Z,6.65
2022-11-28T08:26:33.202Z,6.68
2022-11-28T08:27:33.317Z,6.68
2022-11-28T08:28:32.942Z,6.69
2022-11-28T08:29:34.672Z,6.65
2022-11-28T08:30:32.867Z,6.68
2022-11-28T08:31:33.369Z,6.68
2022-11-28T08:32:37.982Z,6.68
2022-11-28T08:33:34.003Z,6.68
2022-11-28T08:34:32.711Z,6.68
2022-11-28T08:35:33.446Z,6.68
2022-11-28T08:36:32.944Z,6.69
2022-11-28T08:37:32.673Z,6.69
2022-11-28T08:38:32.621Z,6.69
2022-11-28T08:39:32.610Z,6.71
2022-11-28T08:40:32.562Z,6.71
2022-11-28T08:41:32.594Z,6.73
2022-11-28T08:42:32.586Z,6.72
2022-11-28T08:43:32.544Z,6.72
2022-11-28T08:44:32.548Z,6.72
2022-11-28T08:45:32.630Z,6.71
2022-11-28T08:46:32.482Z,6.72
2022-11-28T08:47:32.519Z,6.75
2022-11-28T08:48:32.488Z,6.72
2022-11-28T08:49:32.482Z,6.73
2022-11-28T08:50:32.435Z,6.73
2022-11-28T08:51:32.433Z,6.73
2022-11-28T08:52:32.401Z,6.76
2022-11-28T08:53:32.438Z,6.78
2022-11-28T08:54:32.381Z,6.78
2022-11-28T08:55:33.931Z,6.79
2022-11-28T08:56:32.376Z,6.79
2022-11-28T08:57:32.349Z,6.81
2022-11-28T08:58:32.367Z,6.81
2022-11-28T08:59:32.373Z,6.82
2022-11-28T09:00:32.409Z,6.83
2022-11-28T09:01:32.414Z,6.79
2022-11-28T09:02:32.299Z,6.83
2022-11-28T09:03:32.347Z,6.86
2022-11-28T09:04:32.275Z,6.87
2022-11-28T09:05:32.286Z,6.87
2022-11-28T09:06:32.259Z,6.86
2022-11-28T09:07:32.303Z,6.86
2022-11-28T09:08:32.199Z,6.87
2022-11-28T09:09:32.963Z,6.87
2022-11-28T09:10:32.167Z,6.87
2022-11-28T09:11:32.193Z,6.90
2022-11-28T09:12:32.147Z,6.90
2022-11-28T09:13:32.183Z,6.89
2022-11-28T09:14:32.152Z,6.93
2022-11-28T09:15:32.145Z,6.93
2022-11-28T09:16:32.181Z,6.93
2022-11-28T09:17:32.132Z,6.93
2022-11-28T09:18:32.075Z,6.91
2022-11-28T09:19:32.108Z,6.93
2022-11-28T09:20:32.055Z,6.94
2022-11-28T09:21:32.042Z,6.94
2022-11-28T09:22:32.163Z,6.93
2022-11-28T09:23:32.033Z,6.91
2022-11-28T09:24:32.008Z,6.93
2022-11-28T09:25:31.993Z,6.91
2022-11-28T09:26:31.990Z,6.93
2022-11-28T09:27:31.954Z,6.91
2022-11-28T09:28:31.960Z,6.93
2022-11-28T09:29:31.959Z,6.94
2022-11-28T09:30:31.955Z,6.96
2022-11-28T09:31:31.959Z,6.96
2022-11-28T09:32:31.872Z,6.94
2022-11-28T09:33:31.872Z,6.93
2022-11-28T09:34:31.920Z,6.94
2022-11-28T09:35:31.851Z,6.93
2022-11-28T09:36:31.822Z,6.94
2022-11-28T09:37:31.832Z,6.96
2022-11-28T09:38:31.801Z,6.96
2022-11-28T09:39:44.074Z,6.96
2022-11-28T09:40:32.769Z,6.97
2022-11-28T09:41:31.817Z,6.97
2022-11-28T09:42:31.745Z,6.97
2022-11-28T09:43:31.775Z,6.96
2022-11-28T09:44:31.758Z,6.97
2022-11-28T09:45:31.756Z,6.97
2022-11-28T09:46:31.761Z,7.00
2022-11-28T09:47:31.717Z,7.00
2022-11-28T09:48:31.689Z,7.00
2022-11-28T09:49:36.722Z,7.00
2022-11-28T09:50:32.642Z,6.97
2022-11-28T09:51:31.661Z,6.99
2022-11-28T09:52:31.644Z,7.00
2022-11-28T09:53:31.619Z,6.99
2022-11-28T09:54:31.619Z,7.00
2022-11-28T09:55:31.590Z,7.00
2022-11-28T09:56:31.588Z,7.00
2022-11-28T09:57:31.567Z,7.00
2022-11-28T09:58:31.573Z,7.01
2022-11-28T09:59:31.600Z,7.01
2022-11-28T10:00:31.527Z,7.04
2022-11-28T10:01:31.532Z,7.01
2022-11-28T10:02:31.523Z,6.99
2022-11-28T10:03:31.553Z,7.00
2022-11-28T10:04:31.516Z,7.00
2022-11-28T10:05:31.511Z,6.99
2022-11-28T10:06:31.427Z,7.00
2022-11-28T10:07:31.537Z,6.99
2022-11-28T10:08:31.727Z,6.99
2022-11-28T10:09:31.476Z,6.99
2022-11-28T10:10:31.746Z,7.00
2022-11-28T10:11:31.671Z,7.00
2022-11-28T10:12:31.456Z,7.01
2022-11-28T10:13:47.015Z,7.00
2022-11-28T10:14:33.216Z,7.01
2022-11-28T10:15:31.334Z,7.04
2022-11-28T10:16:31.364Z,7.05
2022-11-28T10:17:31.324Z,7.05
2022-11-28T10:18:31.296Z,7.05
2022-11-28T10:19:57.454Z,7.07
2022-11-28T10:20:32.252Z,7.07
2022-11-28T10:21:31.252Z,7.07
2022-11-28T10:22:31.224Z,7.07
2022-11-28T10:23:31.227Z,7.08
2022-11-28T10:24:31.211Z,7.08
2022-11-28T10:25:31.347Z,7.08
2022-11-28T10:26:31.173Z,7.08
2022-11-28T10:27:31.208Z,7.07
2022-11-28T10:28:31.168Z,7.08
2022-11-28T10:29:31.185Z,7.09
2022-11-28T10:30:31.193Z,7.07
2022-11-28T10:31:31.166Z,7.07
2022-11-28T10:32:31.153Z,7.07
2022-11-28T10:33:31.094Z,7.08
2022-11-28T10:34:31.097Z,7.08
2022-11-28T10:35:31.071Z,7.09
2022-11-28T10:36:31.045Z,7.09
2022-11-28T10:37:31.066Z,7.11
2022-11-28T10:38:31.039Z,7.11
2022-11-28T10:39:31.024Z,7.12
2022-11-28T10:40:30.998Z,7.12
2022-11-28T10:41:31.006Z,7.12
2022-11-28T10:42:31.001Z,7.12
2022-11-28T10:43:31.095Z,7.12
2022-11-28T10:44:31.006Z,7.12
2022-11-28T10:45:30.939Z,7.12
2022-11-28T10:46:31.119Z,7.12
2022-11-28T10:47:30.979Z,7.14
2022-11-28T10:48:40.181Z,7.12
2022-11-28T10:49:31.926Z,7.12
2022-11-28T10:50:32.410Z,7.12
2022-11-28T10:51:31.052Z,7.15
2022-11-28T10:52:30.877Z,7.14
2022-11-28T10:53:30.861Z,7.16
2022-11-28T10:54:30.843Z,7.14
2022-11-28T10:55:30.800Z,7.16
2022-11-28T10:56:30.895Z,7.16
2022-11-28T10:57:30.804Z,7.18
2022-11-28T10:58:31.542Z,7.18
2022-11-28T10:59:30.801Z,7.18
2022-11-28T11:00:30.723Z,7.18
2022-11-28T11:01:30.813Z,7.18
2022-11-28T11:02:30.846Z,7.21
2022-11-28T11:03:30.901Z,7.23
2022-11-28T11:04:30.879Z,7.23
2022-11-28T11:05:30.833Z,7.23
2022-11-28T11:06:41.283Z,7.23
2022-11-28T11:07:31.847Z,7.24
2022-11-28T11:08:30.617Z,7.23
2022-11-28T11:09:30.632Z,7.24
2022-11-28T11:10:30.614Z,7.24
2022-11-28T11:11:30.605Z,7.26
2022-11-28T11:12:30.620Z,7.29
2022-11-28T11:13:30.586Z,7.32
2022-11-28T11:14:30.601Z,7.30
2022-11-28T11:15:30.631Z,7.33
2022-11-28T11:16:30.574Z,7.32
2022-11-28T11:17:35.670Z,7.32
2022-11-28T11:18:31.514Z,7.33
2022-11-28T11:19:30.502Z,7.33
2022-11-28T11:20:30.512Z,7.33
2022-11-28T11:21:31.128Z,7.34
2022-11-28T11:22:39.039Z,7.33
2022-11-28T11:23:36.719Z,7.33
2022-11-28T11:24:32.170Z,7.34
2022-11-28T11:25:31.153Z,7.33
2022-11-28T11:26:30.378Z,7.33
2022-11-28T11:27:30.404Z,7.34
2022-11-28T11:28:30.373Z,7.36
2022-11-28T11:29:30.367Z,7.34
2022-11-28T11:30:30.395Z,7.34
2022-11-28T11:31:30.356Z,7.34
2022-11-28T11:32:30.333Z,7.33
2022-11-28T11:33:30.334Z,7.33
2022-11-28T11:34:30.325Z,7.34
2022-11-28T11:35:30.274Z,7.36
2022-11-28T11:36:30.253Z,7.36
2022-11-28T11:37:30.292Z,7.37
2022-11-28T11:38:34.768Z,7.37
2022-11-28T11:39:31.245Z,7.36
2022-11-28T11:40:30.249Z,7.36
2022-11-28T11:41:30.222Z,7.34
2022-11-28T11:42:30.192Z,7.36
2022-11-28T11:43:30.193Z,7.36
2022-11-28T11:44:30.165Z,7.37
2022-11-28T11:45:30.167Z,7.37
2022-11-28T11:46:30.235Z,7.37
2022-11-28T11:47:30.139Z,7.37
2022-11-28T11:48:30.138Z,7.41
2022-11-28T11:49:30.089Z,7.41
2022-11-28T11:50:30.115Z,7.41
2022-11-28T11:51:32.753Z,7.41
2022-11-28T11:52:31.077Z,7.42
2022-11-28T11:53:30.074Z,7.41
2022-11-28T11:54:30.064Z,7.42
2022-11-28T11:55:30.016Z,7.41
2022-11-28T11:56:30.066Z,7.42
2022-11-28T11:57:34.350Z,7.42
2022-11-28T11:58:29.991Z,7.44
2022-11-28T11:59:29.985Z,7.45
2022-11-28T12:00:29.976Z,7.44
2022-11-28T12:01:29.956Z,7.42
2022-11-28T12:02:30.011Z,7.42
2022-11-28T12:03:30.019Z,7.42
2022-11-28T12:04:45.034Z,7.42
2022-11-28T12:05:46.292Z,7.41
2022-11-28T12:06:30.879Z,7.39
2022-11-28T12:07:29.958Z,7.39
2022-11-28T12:08:29.873Z,7.41
2022-11-28T12:09:29.855Z,7.42
2022-11-28T12:10:29.845Z,7.41
2022-11-28T12:11:29.845Z,7.42
2022-11-28T12:12:29.813Z,7.42
2022-11-28T12:13:29.814Z,7.41
2022-11-28T12:14:29.784Z,7.42
2022-11-28T12:15:29.772Z,7.41
2022-11-28T12:16:29.782Z,7.41
2022-11-28T12:17:59.488Z,7.42
2022-11-28T12:18:30.879Z,7.42
2022-11-28T12:19:29.704Z,7.41
2022-11-28T12:20:29.685Z,7.42
2022-11-28T12:21:29.692Z,7.42
2022-11-28T12:22:29.705Z,7.42
2022-11-28T12:23:29.673Z,7.42
2022-11-28T12:24:29.682Z,7.42
2022-11-28T12:25:29.681Z,7.44
2022-11-28T12:26:29.737Z,7.44
2022-11-28T12:27:29.595Z,7.45
2022-11-28T12:28:29.612Z,7.44
2022-11-28T12:29:29.610Z,7.44
2022-11-28T12:30:29.588Z,7.45
2022-11-28T12:31:29.637Z,7.45
2022-11-28T12:32:29.540Z,7.45
2022-11-28T12:33:29.542Z,7.47
2022-11-28T12:34:29.538Z,7.45
2022-11-28T12:35:29.483Z,7.48
2022-11-28T12:36:29.517Z,7.48
2022-11-28T12:37:42.274Z,7.50
2022-11-28T12:38:30.495Z,7.48
2022-11-28T12:39:29.441Z,7.51
2022-11-28T12:40:29.482Z,7.51
2022-11-28T12:41:32.612Z,7.51
2022-11-28T12:42:29.402Z,7.51
2022-11-28T12:43:29.418Z,7.52
2022-11-28T12:44:29.490Z,7.54
2022-11-28T12:45:29.352Z,7.54
2022-11-28T12:46:29.402Z,7.54
2022-11-28T12:47:29.378Z,7.52
2022-11-28T12:48:29.382Z,7.52
2022-11-28T12:49:29.323Z,7.52
2022-11-28T12:50:29.301Z,7.52
2022-11-28T12:51:29.299Z,7.54
2022-11-28T12:52:29.275Z,7.54
2022-11-28T12:53:29.317Z,7.55
2022-11-28T12:54:29.288Z,7.54
2022-11-28T12:55:29.257Z,7.54
2022-11-28T12:56:29.247Z,7.54
2022-11-28T12:57:29.227Z,7.57
2022-11-28T12:58:29.230Z,7.58
2022-11-28T12:59:29.203Z,7.55
2022-11-28T13:00:29.169Z,7.57
2022-11-28T13:01:29.218Z,7.57
2022-11-28T13:02:29.314Z,7.57
2022-11-28T13:03:29.165Z,7.55
2022-11-28T13:04:29.121Z,7.57
2022-11-28T13:05:29.136Z,7.58
2022-11-28T13:06:29.119Z,7.58
2022-11-28T13:07:29.116Z,7.57
2022-11-28T13:08:29.060Z,7.57
2022-11-28T13:09:29.065Z,7.57
2022-11-28T13:10:29.057Z,7.58
2022-11-28T13:11:29.007Z,7.57
2022-11-28T13:12:29.020Z,7.57
2022-11-28T13:13:28.979Z,7.57
2022-11-28T13:14:29.009Z,7.57
2022-11-28T13:15:29.018Z,7.57
2022-11-28T13:16:29.036Z,7.55
2022-11-28T13:17:28.984Z,7.57
2022-11-28T13:18:28.945Z,7.57
2022-11-28T13:19:28.933Z,7.57
2022-11-28T13:20:28.955Z,7.57
2022-11-28T13:21:28.884Z,7.57